Accueil
METAR-TAF:

METAR-TAF

Aéroports :

Cervia, Italie

latitude: 44-13N, longitude: 012-18E, altitude: 6 m

Observation

Le bulletin a été fait il y a 30 minutes, à 00:55 UTC
Vent 12 kt de est
Température 17°C
Humidité 88%
Pression 1024 hPa
Visibilité 10 km ou plus
pas de nuages en-dessous de 1500 mètres et pas de cumulonimbus.

METAR: LIPC 260055Z 09012KT CAVOK 17/15 Q1024 RMK SCT SCT090 VIS MIN 9999 WIND THR11 07012KT WIND THR29 09013KT BLU

Heure: 03:25 (01:25 UTC)

Prévision

Le bulletin a été fait il y a 2 heures et 25 minutes, à 23:00 UTC
Prévision valable du 26 à 00 UTC au 26 à 09 UTC
Vent 5 kt de est
Visibilité 10 km ou plus
pas de nuages en-dessous de 1500 mètres et pas de cumulonimbus.
Evoluant progressivement
du 26 à 01 UTC au 26 à 03 UTC
Vent 13 kt de sud-est

TAF: LIPC 252300Z 2600/2609 08005KT CAVOK BECMG 2601/2603 13013KT

Observations et prévisions météorologiques de plus de 4000 aéroports (messages METAR et TAF).

Les stations disponibles sont représentées par des disques jaunes et rouges sur la carte.

Passer la souris dessus pour voir le nom de la station.

Cliquer dessus pour voir les observations et prévisions météorologiques.

Pour changer de carte: cliquez sur les boutons verts avec une croix noire pour zoomer, sur le bouton vert avec un tiret pour effectuer un zoom arrière, ou sur les flèches vertes pour les cartes adjacentes.


METAR-TAF: